sensor_id;sensor_type;location;lat;lon;timestamp;pressure;altitude;pressure_sealevel;temperature;humidity
15267;BME280;7735;49.144;8.668;2023-06-26T00:01:40;100023.53;;;24.46;46.76
15267;BME280;7735;49.144;8.668;2023-06-26T00:04:09;100014.94;;;24.43;46.61
15267;BME280;7735;49.144;8.668;2023-06-26T00:06:39;100013.50;;;24.37;47.00
15267;BME280;7735;49.144;8.668;2023-06-26T00:09:06;100020.13;;;24.32;47.21
15267;BME280;7735;49.144;8.668;2023-06-26T00:11:32;100024.66;;;24.29;47.30
15267;BME280;7735;49.144;8.668;2023-06-26T00:13:59;100024.00;;;24.26;47.27
15267;BME280;7735;49.144;8.668;2023-06-26T00:16:29;100024.41;;;24.20;47.30
15267;BME280;7735;49.144;8.668;2023-06-26T00:18:56;100032.69;;;24.15;47.53
15267;BME280;7735;49.144;8.668;2023-06-26T00:21:31;100032.81;;;24.14;47.55
15267;BME280;7735;49.144;8.668;2023-06-26T00:23:57;100026.72;;;24.12;47.34
15267;BME280;7735;49.144;8.668;2023-06-26T00:26:24;100031.19;;;24.11;47.60
15267;BME280;7735;49.144;8.668;2023-06-26T00:28:50;100026.91;;;24.09;47.71
15267;BME280;7735;49.144;8.668;2023-06-26T00:31:17;100019.16;;;24.06;47.73
15267;BME280;7735;49.144;8.668;2023-06-26T00:33:44;100025.53;;;24.03;47.63
15267;BME280;7735;49.144;8.668;2023-06-26T00:36:10;100029.34;;;23.99;47.67
15267;BME280;7735;49.144;8.668;2023-06-26T00:38:38;100029.09;;;23.89;47.97
15267;BME280;7735;49.144;8.668;2023-06-26T00:41:05;100027.75;;;23.82;47.74
15267;BME280;7735;49.144;8.668;2023-06-26T00:43:37;100032.34;;;23.80;48.12
15267;BME280;7735;49.144;8.668;2023-06-26T00:46:04;100027.88;;;23.81;47.99
15267;BME280;7735;49.144;8.668;2023-06-26T00:48:35;100025.22;;;23.81;47.93
15267;BME280;7735;49.144;8.668;2023-06-26T00:51:02;100025.09;;;23.82;48.01
15267;BME280;7735;49.144;8.668;2023-06-26T00:53:30;100018.81;;;23.83;47.92
15267;BME280;7735;49.144;8.668;2023-06-26T00:55:58;100022.44;;;23.82;48.26
15267;BME280;7735;49.144;8.668;2023-06-26T00:58:26;100024.34;;;23.80;47.86
15267;BME280;7735;49.144;8.668;2023-06-26T01:00:52;100018.28;;;23.78;47.97
15267;BME280;7735;49.144;8.668;2023-06-26T01:03:19;100022.84;;;23.76;47.81
15267;BME280;7735;49.144;8.668;2023-06-26T01:05:49;100017.94;;;23.70;47.97
15267;BME280;7735;49.144;8.668;2023-06-26T01:08:16;100019.84;;;23.68;48.04
15267;BME280;7735;49.144;8.668;2023-06-26T01:10:44;100010.22;;;23.65;48.03
15267;BME280;7735;49.144;8.668;2023-06-26T01:13:13;100010.22;;;23.65;48.35
15267;BME280;7735;49.144;8.668;2023-06-26T01:15:41;100008.75;;;23.61;48.42
15267;BME280;7735;49.144;8.668;2023-06-26T01:18:08;100008.84;;;23.60;48.38
15267;BME280;7735;49.144;8.668;2023-06-26T01:20:36;100020.47;;;23.57;48.60
15267;BME280;7735;49.144;8.668;2023-06-26T01:23:10;100009.94;;;23.56;48.30
15267;BME280;7735;49.144;8.668;2023-06-26T01:25:50;100010.16;;;23.53;48.30
15267;BME280;7735;49.144;8.668;2023-06-26T01:28:22;100015.84;;;23.46;48.37
15267;BME280;7735;49.144;8.668;2023-06-26T01:30:51;100008.16;;;23.42;48.78
15267;BME280;7735;49.144;8.668;2023-06-26T01:33:17;100013.66;;;23.39;48.78
15267;BME280;7735;49.144;8.668;2023-06-26T01:35:44;100007.69;;;23.35;48.99
15267;BME280;7735;49.144;8.668;2023-06-26T01:38:13;100011.31;;;23.34;48.88
15267;BME280;7735;49.144;8.668;2023-06-26T01:40:40;100013.97;;;23.34;48.83
15267;BME280;7735;49.144;8.668;2023-06-26T01:43:11;100010.63;;;23.31;49.10
15267;BME280;7735;49.144;8.668;2023-06-26T01:45:41;100008.06;;;23.29;48.97
15267;BME280;7735;49.144;8.668;2023-06-26T01:48:12;100006.38;;;23.28;48.93
15267;BME280;7735;49.144;8.668;2023-06-26T01:50:43;100003.81;;;23.27;48.99
15267;BME280;7735;49.144;8.668;2023-06-26T01:53:12;100002.22;;;23.24;48.93
15267;BME280;7735;49.144;8.668;2023-06-26T01:55:46;100003.06;;;23.25;49.04
15267;BME280;7735;49.144;8.668;2023-06-26T01:58:13;100004.88;;;23.24;49.05
15267;BME280;7735;49.144;8.668;2023-06-26T02:00:43;100009.41;;;23.22;48.97
15267;BME280;7735;49.144;8.668;2023-06-26T02:03:10;100012.06;;;23.22;49.14
15267;BME280;7735;49.144;8.668;2023-06-26T02:05:36;100007.78;;;23.20;48.93
15267;BME280;7735;49.144;8.668;2023-06-26T02:08:03;100006.09;;;23.18;49.20
15267;BME280;7735;49.144;8.668;2023-06-26T02:10:30;100007.91;;;23.18;49.24
15267;BME280;7735;49.144;8.668;2023-06-26T02:12:56;100008.00;;;23.16;49.16
15267;BME280;7735;49.144;8.668;2023-06-26T02:15:26;100003.69;;;23.14;49.12
15267;BME280;7735;49.144;8.668;2023-06-26T02:17:57;100007.41;;;23.11;49.18
15267;BME280;7735;49.144;8.668;2023-06-26T02:20:23;100001.56;;;23.06;49.27
15267;BME280;7735;49.144;8.668;2023-06-26T02:22:50;100007.88;;;23.04;49.28
15267;BME280;7735;49.144;8.668;2023-06-26T02:25:17;100003.53;;;23.03;49.44
15267;BME280;7735;49.144;8.668;2023-06-26T02:27:44;100004.47;;;23.02;49.30
15267;BME280;7735;49.144;8.668;2023-06-26T02:30:10;100006.38;;;23.00;49.51
15267;BME280;7735;49.144;8.668;2023-06-26T02:32:37;100010.94;;;22.98;49.50
15267;BME280;7735;49.144;8.668;2023-06-26T02:35:07;100002.97;;;22.98;49.44
15267;BME280;7735;49.144;8.668;2023-06-26T02:37:33;100011.00;;;22.96;49.51
15267;BME280;7735;49.144;8.668;2023-06-26T02:40:00;100013.00;;;22.93;49.44
15267;BME280;7735;49.144;8.668;2023-06-26T02:42:27;100008.84;;;22.88;49.63
15267;BME280;7735;49.144;8.668;2023-06-26T02:44:53;100007.09;;;22.87;49.71
15267;BME280;7735;49.144;8.668;2023-06-26T02:47:20;100021.44;;;22.85;49.77
15267;BME280;7735;49.144;8.668;2023-06-26T02:49:46;100020.00;;;22.79;49.66
15267;BME280;7735;49.144;8.668;2023-06-26T02:52:14;100020.25;;;22.75;49.89
15267;BME280;7735;49.144;8.668;2023-06-26T02:54:41;100015.88;;;22.74;49.84
15267;BME280;7735;49.144;8.668;2023-06-26T02:57:07;100015.19;;;22.70;50.03
15267;BME280;7735;49.144;8.668;2023-06-26T02:59:35;100013.69;;;22.66;49.93
15267;BME280;7735;49.144;8.668;2023-06-26T03:02:01;100009.34;;;22.65;50.05
15267;BME280;7735;49.144;8.668;2023-06-26T03:04:28;100014.66;;;22.65;50.06
15267;BME280;7735;49.144;8.668;2023-06-26T03:06:54;100014.66;;;22.65;49.98
15267;BME280;7735;49.144;8.668;2023-06-26T03:09:22;100018.06;;;22.67;50.14
15267;BME280;7735;49.144;8.668;2023-06-26T03:11:49;100015.59;;;22.64;50.11
15267;BME280;7735;49.144;8.668;2023-06-26T03:14:16;100019.19;;;22.63;50.02
15267;BME280;7735;49.144;8.668;2023-06-26T03:16:42;100017.50;;;22.62;50.02
15267;BME280;7735;49.144;8.668;2023-06-26T03:19:09;100011.41;;;22.60;49.83
15267;BME280;7735;49.144;8.668;2023-06-26T03:21:35;100017.50;;;22.62;50.02
15267;BME280;7735;49.144;8.668;2023-06-26T03:24:02;100012.94;;;22.64;49.95
15267;BME280;7735;49.144;8.668;2023-06-26T03:26:30;100017.50;;;22.62;50.05
15267;BME280;7735;49.144;8.668;2023-06-26T03:28:57;100015.94;;;22.58;49.94
15267;BME280;7735;49.144;8.668;2023-06-26T03:31:24;100019.56;;;22.57;49.87
15267;BME280;7735;49.144;8.668;2023-06-26T03:34:01;100019.75;;;22.54;49.92
15267;BME280;7735;49.144;8.668;2023-06-26T03:36:27;100022.41;;;22.54;49.99
15267;BME280;7735;49.144;8.668;2023-06-26T03:38:54;100024.25;;;22.52;49.92
15267;BME280;7735;49.144;8.668;2023-06-26T03:41:22;100016.50;;;22.49;50.10
15267;BME280;7735;49.144;8.668;2023-06-26T03:43:50;100022.75;;;22.48;50.00
15267;BME280;7735;49.144;8.668;2023-06-26T03:46:17;100020.09;;;22.48;50.17
15267;BME280;7735;49.144;8.668;2023-06-26T03:48:43;100023.84;;;22.44;50.19
15267;BME280;7735;49.144;8.668;2023-06-26T03:51:10;100015.31;;;22.39;50.18
15267;BME280;7735;49.144;8.668;2023-06-26T03:53:36;100020.81;;;22.36;50.18
15267;BME280;7735;49.144;8.668;2023-06-26T03:56:03;100021.84;;;22.33;50.18
15267;BME280;7735;49.144;8.668;2023-06-26T03:58:30;100022.78;;;22.32;50.25
15267;BME280;7735;49.144;8.668;2023-06-26T04:00:58;100022.13;;;22.28;50.43
15267;BME280;7735;49.144;8.668;2023-06-26T04:03:25;100025.78;;;22.26;50.60
15267;BME280;7735;49.144;8.668;2023-06-26T04:05:52;100031.19;;;22.24;50.54
15267;BME280;7735;49.144;8.668;2023-06-26T04:08:19;100034.78;;;22.23;50.56
15267;BME280;7735;49.144;8.668;2023-06-26T04:10:46;100026.81;;;22.23;50.62
15267;BME280;7735;49.144;8.668;2023-06-26T04:13:13;100032.31;;;22.20;50.62
15267;BME280;7735;49.144;8.668;2023-06-26T04:15:40;100032.31;;;22.20;50.83
15267;BME280;7735;49.144;8.668;2023-06-26T04:18:08;100031.38;;;22.21;50.89
15267;BME280;7735;49.144;8.668;2023-06-26T04:20:38;100036.78;;;22.20;50.77
15267;BME280;7735;49.144;8.668;2023-06-26T04:23:05;100042.94;;;22.20;50.87
15267;BME280;7735;49.144;8.668;2023-06-26T04:25:32;100048.47;;;22.16;51.04
15267;BME280;7735;49.144;8.668;2023-06-26T04:27:58;100035.13;;;22.17;50.95
15267;BME280;7735;49.144;8.668;2023-06-26T04:30:25;100040.38;;;22.19;50.94
15267;BME280;7735;49.144;8.668;2023-06-26T04:32:53;100045.47;;;22.22;50.87
15267;BME280;7735;49.144;8.668;2023-06-26T04:35:21;100035.72;;;22.22;50.91
15267;BME280;7735;49.144;8.668;2023-06-26T04:37:49;100048.03;;;22.23;50.99
15267;BME280;7735;49.144;8.668;2023-06-26T04:40:16;100046.34;;;22.22;50.97
15267;BME280;7735;49.144;8.668;2023-06-26T04:42:45;100041.88;;;22.23;50.94
15267;BME280;7735;49.144;8.668;2023-06-26T04:45:11;100043.59;;;22.24;50.97
15267;BME280;7735;49.144;8.668;2023-06-26T04:47:38;100029.38;;;22.25;51.14
15267;BME280;7735;49.144;8.668;2023-06-26T04:50:06;100033.69;;;22.27;51.09
15267;BME280;7735;49.144;8.668;2023-06-26T04:52:34;100038.78;;;22.30;50.98
15267;BME280;7735;49.144;8.668;2023-06-26T04:55:00;100037.09;;;22.29;51.10
15267;BME280;7735;49.144;8.668;2023-06-26T04:57:27;100036.91;;;22.32;51.12
15267;BME280;7735;49.144;8.668;2023-06-26T04:59:53;100037.50;;;22.38;51.13
15267;BME280;7735;49.144;8.668;2023-06-26T05:02:20;100036.38;;;22.42;51.03
15267;BME280;7735;49.144;8.668;2023-06-26T05:04:47;100038.75;;;22.46;51.03
15267;BME280;7735;49.144;8.668;2023-06-26T05:07:14;100035.06;;;22.49;51.21
15267;BME280;7735;49.144;8.668;2023-06-26T05:09:41;100035.81;;;22.51;51.22
15267;BME280;7735;49.144;8.668;2023-06-26T05:12:08;100033.97;;;22.53;51.17
15267;BME280;7735;49.144;8.668;2023-06-26T05:14:35;100039.94;;;22.56;51.19
15267;BME280;7735;49.144;8.668;2023-06-26T05:17:01;100033.56;;;22.59;51.14
15267;BME280;7735;49.144;8.668;2023-06-26T05:19:28;100028.88;;;22.64;51.31
15267;BME280;7735;49.144;8.668;2023-06-26T05:21:58;100030.28;;;22.70;51.14
15267;BME280;7735;49.144;8.668;2023-06-26T05:24:27;100030.97;;;22.73;51.14
15267;BME280;7735;49.144;8.668;2023-06-26T05:26:56;100038.63;;;22.78;51.23
15267;BME280;7735;49.144;8.668;2023-06-26T05:29:23;100042.75;;;22.83;50.98
15267;BME280;7735;49.144;8.668;2023-06-26T05:31:51;100038.22;;;22.85;51.07
15267;BME280;7735;49.144;8.668;2023-06-26T05:34:19;100035.41;;;22.88;51.36
15267;BME280;7735;49.144;8.668;2023-06-26T05:36:50;100029.88;;;22.92;51.29
15267;BME280;7735;49.144;8.668;2023-06-26T05:39:17;100027.78;;;22.97;51.29
15267;BME280;7735;49.144;8.668;2023-06-26T05:41:45;100027.53;;;23.01;51.43
15267;BME280;7735;49.144;8.668;2023-06-26T05:44:13;100031.69;;;23.05;51.22
15267;BME280;7735;49.144;8.668;2023-06-26T05:46:39;100029.72;;;23.09;51.15
15267;BME280;7735;49.144;8.668;2023-06-26T05:49:06;100038.22;;;23.14;51.36
15267;BME280;7735;49.144;8.668;2023-06-26T05:51:33;100037.13;;;23.18;51.29
15267;BME280;7735;49.144;8.668;2023-06-26T05:54:00;100034.16;;;23.23;50.97
15267;BME280;7735;49.144;8.668;2023-06-26T05:56:41;100034.84;;;23.26;50.83
15267;BME280;7735;49.144;8.668;2023-06-26T05:59:27;100031.03;;;23.30;51.14
15267;BME280;7735;49.144;8.668;2023-06-26T06:01:56;100033.41;;;23.35;50.78
15267;BME280;7735;49.144;8.668;2023-06-26T06:04:22;100031.25;;;23.41;50.76
15267;BME280;7735;49.144;8.668;2023-06-26T06:06:49;100042.22;;;23.50;50.38
15267;BME280;7735;49.144;8.668;2023-06-26T06:09:16;100031.19;;;23.56;50.15
15267;BME280;7735;49.144;8.668;2023-06-26T06:11:43;100039.78;;;23.61;49.91
15267;BME280;7735;49.144;8.668;2023-06-26T06:14:09;100038.63;;;23.65;49.73
15267;BME280;7735;49.144;8.668;2023-06-26T06:16:37;100039.19;;;23.70;50.07
15267;BME280;7735;49.144;8.668;2023-06-26T06:19:04;100040.69;;;23.74;49.97
15267;BME280;7735;49.144;8.668;2023-06-26T06:21:33;100039.34;;;23.81;49.82
15267;BME280;7735;49.144;8.668;2023-06-26T06:23:59;100040.69;;;23.88;49.60
15267;BME280;7735;49.144;8.668;2023-06-26T06:26:26;100047.31;;;23.95;49.50
15267;BME280;7735;49.144;8.668;2023-06-26T06:28:53;100042.53;;;24.00;49.64
15267;BME280;7735;49.144;8.668;2023-06-26T06:31:20;100040.22;;;24.09;49.31
15267;BME280;7735;49.144;8.668;2023-06-26T06:33:48;100042.50;;;24.15;49.26
15267;BME280;7735;49.144;8.668;2023-06-26T06:36:16;100046.63;;;24.19;49.41
15267;BME280;7735;49.144;8.668;2023-06-26T06:38:43;100038.25;;;24.25;49.00
15267;BME280;7735;49.144;8.668;2023-06-26T06:41:10;100037.88;;;24.31;49.01
15267;BME280;7735;49.144;8.668;2023-06-26T06:43:38;100043.75;;;24.36;49.34
15267;BME280;7735;49.144;8.668;2023-06-26T06:46:04;100040.59;;;24.44;49.02
15267;BME280;7735;49.144;8.668;2023-06-26T06:48:31;100036.66;;;24.49;48.65
15267;BME280;7735;49.144;8.668;2023-06-26T06:50:59;100039.84;;;24.54;48.40
15267;BME280;7735;49.144;8.668;2023-06-26T06:53:26;100033.16;;;24.62;47.43
15267;BME280;7735;49.144;8.668;2023-06-26T06:55:52;100030.00;;;24.69;46.77
15267;BME280;7735;49.144;8.668;2023-06-26T06:58:19;100033.84;;;24.78;46.56
15267;BME280;7735;49.144;8.668;2023-06-26T07:00:46;100034.16;;;24.86;46.25
15267;BME280;7735;49.144;8.668;2023-06-26T07:03:12;100035.44;;;24.93;45.97
15267;BME280;7735;49.144;8.668;2023-06-26T07:05:41;100029.50;;;25.02;45.56
15267;BME280;7735;49.144;8.668;2023-06-26T07:08:12;100031.72;;;25.08;44.98
15267;BME280;7735;49.144;8.668;2023-06-26T07:10:39;100033.13;;;25.14;44.30
15267;BME280;7735;49.144;8.668;2023-06-26T07:13:06;100026.41;;;25.21;44.04
15267;BME280;7735;49.144;8.668;2023-06-26T07:15:37;100024.19;;;25.28;44.43
15267;BME280;7735;49.144;8.668;2023-06-26T07:18:10;100026.38;;;25.34;44.16
15267;BME280;7735;49.144;8.668;2023-06-26T07:20:39;100023.19;;;25.41;44.38
15267;BME280;7735;49.144;8.668;2023-06-26T07:23:06;100019.97;;;25.49;44.00
15267;BME280;7735;49.144;8.668;2023-06-26T07:25:34;100015.91;;;25.56;43.69
15267;BME280;7735;49.144;8.668;2023-06-26T07:28:05;100017.38;;;25.60;43.47
15267;BME280;7735;49.144;8.668;2023-06-26T07:30:35;100019.50;;;25.68;43.25
15267;BME280;7735;49.144;8.668;2023-06-26T07:33:02;100019.09;;;25.74;43.09
15267;BME280;7735;49.144;8.668;2023-06-26T07:35:29;100023.00;;;25.81;42.91
15267;BME280;7735;49.144;8.668;2023-06-26T07:37:55;100023.50;;;25.86;42.47
15267;BME280;7735;49.144;8.668;2023-06-26T07:40:22;100015.19;;;25.91;42.46
15267;BME280;7735;49.144;8.668;2023-06-26T07:42:50;100020.94;;;25.97;42.54
15267;BME280;7735;49.144;8.668;2023-06-26T07:45:17;100015.13;;;26.04;42.48
15267;BME280;7735;49.144;8.668;2023-06-26T07:47:43;100018.31;;;26.09;42.57
15267;BME280;7735;49.144;8.668;2023-06-26T07:50:12;100018.72;;;26.15;41.85
15267;BME280;7735;49.144;8.668;2023-06-26T07:52:41;100025.28;;;26.22;41.91
15267;BME280;7735;49.144;8.668;2023-06-26T07:55:11;100021.19;;;26.30;41.90
15267;BME280;7735;49.144;8.668;2023-06-26T07:57:45;100031.53;;;26.34;41.68
15267;BME280;7735;49.144;8.668;2023-06-26T08:00:20;100027.56;;;26.40;41.38
15267;BME280;7735;49.144;8.668;2023-06-26T08:02:46;100036.09;;;26.45;41.20
15267;BME280;7735;49.144;8.668;2023-06-26T08:05:13;100025.16;;;26.48;41.19
15267;BME280;7735;49.144;8.668;2023-06-26T08:07:40;100024.84;;;26.52;41.18
15267;BME280;7735;49.144;8.668;2023-06-26T08:10:07;100019.97;;;26.58;41.17
15267;BME280;7735;49.144;8.668;2023-06-26T08:12:36;100026.81;;;26.62;41.03
15267;BME280;7735;49.144;8.668;2023-06-26T08:15:08;100032.53;;;26.68;40.73
15267;BME280;7735;49.144;8.668;2023-06-26T08:17:43;100032.03;;;26.74;40.92
15267;BME280;7735;49.144;8.668;2023-06-26T08:20:18;100026.97;;;26.82;40.71
15267;BME280;7735;49.144;8.668;2023-06-26T08:22:54;100027.47;;;26.88;40.71
15267;BME280;7735;49.144;8.668;2023-06-26T08:25:30;100029.66;;;26.94;40.59
15267;BME280;7735;49.144;8.668;2023-06-26T08:28:02;100024.56;;;27.02;40.39
15267;BME280;7735;49.144;8.668;2023-06-26T08:30:42;100022.16;;;27.10;40.46
15267;BME280;7735;49.144;8.668;2023-06-26T08:33:17;100028.50;;;27.20;40.38
15267;BME280;7735;49.144;8.668;2023-06-26T08:35:58;100029.50;;;27.30;40.26
15267;BME280;7735;49.144;8.668;2023-06-26T08:38:27;100029.59;;;27.40;39.42
15267;BME280;7735;49.144;8.668;2023-06-26T08:41:03;100034.69;;;27.43;39.22
15267;BME280;7735;49.144;8.668;2023-06-26T08:43:36;100044.06;;;27.49;39.42
15267;BME280;7735;49.144;8.668;2023-06-26T08:46:05;100042.13;;;27.51;39.58
15267;BME280;7735;49.144;8.668;2023-06-26T08:48:39;100042.72;;;27.54;39.37
15267;BME280;7735;49.144;8.668;2023-06-26T08:51:20;100044.31;;;27.57;39.39
15267;BME280;7735;49.144;8.668;2023-06-26T08:53:56;100053.78;;;27.61;39.08
15267;BME280;7735;49.144;8.668;2023-06-26T08:56:28;100057.31;;;27.61;39.19
15267;BME280;7735;49.144;8.668;2023-06-26T08:58:56;100052.06;;;27.60;39.57
15267;BME280;7735;49.144;8.668;2023-06-26T09:01:26;100054.03;;;27.58;39.68
15267;BME280;7735;49.144;8.668;2023-06-26T09:04:16;100056.81;;;27.56;39.86
15267;BME280;7735;49.144;8.668;2023-06-26T09:06:48;100060.59;;;27.54;40.29
15267;BME280;7735;49.144;8.668;2023-06-26T09:09:17;100053.66;;;27.51;40.61
15267;BME280;7735;49.144;8.668;2023-06-26T09:11:48;100059.00;;;27.51;40.68
15267;BME280;7735;49.144;8.668;2023-06-26T09:14:22;100050.28;;;27.49;40.99
15267;BME280;7735;49.144;8.668;2023-06-26T09:16:58;100059.25;;;27.59;40.91
15267;BME280;7735;49.144;8.668;2023-06-26T09:19:36;100060.81;;;27.96;40.76
15267;BME280;7735;49.144;8.668;2023-06-26T09:22:03;100062.47;;;28.08;40.56
15267;BME280;7735;49.144;8.668;2023-06-26T09:24:45;100069.78;;;28.06;40.18
15267;BME280;7735;49.144;8.668;2023-06-26T09:27:29;100072.25;;;27.98;40.75
15267;BME280;7735;49.144;8.668;2023-06-26T09:29:58;100082.72;;;27.89;40.99
15267;BME280;7735;49.144;8.668;2023-06-26T09:32:45;100080.44;;;27.85;41.13
15267;BME280;7735;49.144;8.668;2023-06-26T09:35:27;100087.97;;;27.80;41.20
15267;BME280;7735;49.144;8.668;2023-06-26T09:38:07;100087.97;;;27.80;41.53
15267;BME280;7735;49.144;8.668;2023-06-26T09:40:47;100091.25;;;27.83;41.17
15267;BME280;7735;49.144;8.668;2023-06-26T09:43:18;100092.44;;;27.90;41.63
15267;BME280;7735;49.144;8.668;2023-06-26T09:46:04;100086.59;;;27.97;41.55
15267;BME280;7735;49.144;8.668;2023-06-26T09:48:37;100081.97;;;27.99;41.22
15267;BME280;7735;49.144;8.668;2023-06-26T09:51:19;100079.16;;;28.00;41.59
15267;BME280;7735;49.144;8.668;2023-06-26T09:53:52;100079.06;;;28.02;41.38
15267;BME280;7735;49.144;8.668;2023-06-26T09:56:26;100086.13;;;28.03;41.61
15267;BME280;7735;49.144;8.668;2023-06-26T09:59:01;100073.44;;;28.05;41.48
15267;BME280;7735;49.144;8.668;2023-06-26T10:01:32;100073.81;;;28.11;41.98
15267;BME280;7735;49.144;8.668;2023-06-26T10:04:06;100074.13;;;28.18;41.61
15267;BME280;7735;49.144;8.668;2023-06-26T10:06:55;100075.84;;;28.19;41.49
15267;BME280;7735;49.144;8.668;2023-06-26T10:12:22;100074.75;;;28.21;41.37
15267;BME280;7735;49.144;8.668;2023-06-26T10:15:02;100075.59;;;28.22;41.31
15267;BME280;7735;49.144;8.668;2023-06-26T10:17:34;100078.75;;;28.27;41.74
15267;BME280;7735;49.144;8.668;2023-06-26T10:20:11;100071.22;;;28.32;41.81
15267;BME280;7735;49.144;8.668;2023-06-26T10:23:00;100065.34;;;28.38;41.45
15267;BME280;7735;49.144;8.668;2023-06-26T10:25:41;100077.75;;;28.39;41.63
15267;BME280;7735;49.144;8.668;2023-06-26T10:28:24;100078.47;;;28.41;41.53
15267;BME280;7735;49.144;8.668;2023-06-26T10:30:53;100069.66;;;28.50;41.61
15267;BME280;7735;49.144;8.668;2023-06-26T10:33:33;100074.53;;;28.57;41.37
15267;BME280;7735;49.144;8.668;2023-06-26T10:36:30;100072.06;;;28.65;41.29
15267;BME280;7735;49.144;8.668;2023-06-26T10:39:04;100073.75;;;28.66;41.15
15267;BME280;7735;49.144;8.668;2023-06-26T10:41:36;100072.25;;;28.73;40.97
15267;BME280;7735;49.144;8.668;2023-06-26T10:44:10;100070.50;;;28.83;40.91
15267;BME280;7735;49.144;8.668;2023-06-26T10:46:51;100079.59;;;28.92;41.17
15267;BME280;7735;49.144;8.668;2023-06-26T10:49:29;100077.25;;;28.98;41.04
15267;BME280;7735;49.144;8.668;2023-06-26T10:52:09;100076.00;;;29.02;40.82
15267;BME280;7735;49.144;8.668;2023-06-26T10:54:46;100065.75;;;29.08;40.43
15267;BME280;7735;49.144;8.668;2023-06-26T10:57:23;100084.72;;;29.16;40.18
15267;BME280;7735;49.144;8.668;2023-06-26T11:00:08;100076.72;;;29.25;39.89
15267;BME280;7735;49.144;8.668;2023-06-26T11:02:47;100078.97;;;29.30;39.30
15267;BME280;7735;49.144;8.668;2023-06-26T11:05:37;100091.59;;;29.39;39.06
15267;BME280;7735;49.144;8.668;2023-06-26T11:08:07;100081.31;;;29.44;38.42
15267;BME280;7735;49.144;8.668;2023-06-26T11:11:00;100083.38;;;29.52;38.84
15267;BME280;7735;49.144;8.668;2023-06-26T11:13:45;100087.31;;;29.57;38.71
15267;BME280;7735;49.144;8.668;2023-06-26T11:16:27;100085.81;;;29.65;38.79
15267;BME280;7735;49.144;8.668;2023-06-26T11:18:58;100104.19;;;29.69;38.24
15267;BME280;7735;49.144;8.668;2023-06-26T11:21:40;100096.41;;;29.66;37.92
15267;BME280;7735;49.144;8.668;2023-06-26T11:24:18;100096.25;;;29.68;38.23
15267;BME280;7735;49.144;8.668;2023-06-26T11:26:49;100101.63;;;29.68;38.11
15267;BME280;7735;49.144;8.668;2023-06-26T11:29:22;100106.44;;;29.64;37.75
15267;BME280;7735;49.144;8.668;2023-06-26T11:32:00;100102.31;;;29.60;37.84
15267;BME280;7735;49.144;8.668;2023-06-26T11:34:36;100096.38;;;29.56;38.20
15267;BME280;7735;49.144;8.668;2023-06-26T11:37:03;100104.69;;;29.53;38.16
15267;BME280;7735;49.144;8.668;2023-06-26T11:39:33;100101.16;;;29.53;38.46
15267;BME280;7735;49.144;8.668;2023-06-26T11:42:13;100109.56;;;29.48;38.46
15267;BME280;7735;49.144;8.668;2023-06-26T11:44:40;100099.81;;;29.47;38.06
15267;BME280;7735;49.144;8.668;2023-06-26T11:47:22;100109.47;;;29.50;37.91
15267;BME280;7735;49.144;8.668;2023-06-26T11:49:58;100098.47;;;29.53;37.96
15267;BME280;7735;49.144;8.668;2023-06-26T11:52:36;100099.03;;;29.56;38.01
15267;BME280;7735;49.144;8.668;2023-06-26T11:55:14;100099.50;;;29.61;37.72
15267;BME280;7735;49.144;8.668;2023-06-26T11:57:55;100103.59;;;29.66;36.82
15267;BME280;7735;49.144;8.668;2023-06-26T12:00:41;100105.31;;;29.67;37.26
15267;BME280;7735;49.144;8.668;2023-06-26T12:03:15;100107.56;;;29.61;37.13
15267;BME280;7735;49.144;8.668;2023-06-26T12:05:50;100103.19;;;29.60;37.26
15267;BME280;7735;49.144;8.668;2023-06-26T12:08:25;100104.59;;;29.65;37.31
15267;BME280;7735;49.144;8.668;2023-06-26T12:11:01;100104.06;;;29.71;36.91
15267;BME280;7735;49.144;8.668;2023-06-26T12:13:37;100113.13;;;29.79;36.78
15267;BME280;7735;49.144;8.668;2023-06-26T12:16:33;100105.09;;;29.89;36.11
15267;BME280;7735;49.144;8.668;2023-06-26T12:19:24;100100.31;;;30.02;36.12
15267;BME280;7735;49.144;8.668;2023-06-26T12:21:54;100102.22;;;30.11;35.61
15267;BME280;7735;49.144;8.668;2023-06-26T12:24:38;100084.72;;;30.27;34.77
15267;BME280;7735;49.144;8.668;2023-06-26T12:27:08;100100.13;;;30.34;34.48
15267;BME280;7735;49.144;8.668;2023-06-26T12:29:50;100095.06;;;30.41;34.07
15267;BME280;7735;49.144;8.668;2023-06-26T12:32:18;100102.84;;;30.44;34.30
15267;BME280;7735;49.144;8.668;2023-06-26T12:34:51;100110.59;;;30.47;33.66
15267;BME280;7735;49.144;8.668;2023-06-26T12:37:21;100107.06;;;30.56;33.57
15267;BME280;7735;49.144;8.668;2023-06-26T12:39:55;100106.50;;;30.62;32.77
15267;BME280;7735;49.144;8.668;2023-06-26T12:42:28;100104.44;;;30.66;32.13
15267;BME280;7735;49.144;8.668;2023-06-26T12:45:10;100102.00;;;30.72;31.84
15267;BME280;7735;49.144;8.668;2023-06-26T12:47:37;100103.44;;;30.77;31.72
15267;BME280;7735;49.144;8.668;2023-06-26T12:50:07;100104.00;;;30.80;32.11
15267;BME280;7735;49.144;8.668;2023-06-26T12:52:37;100097.75;;;30.89;31.80
15267;BME280;7735;49.144;8.668;2023-06-26T12:55:11;100097.19;;;30.86;31.38
15267;BME280;7735;49.144;8.668;2023-06-26T12:57:39;100095.06;;;30.89;31.45
15267;BME280;7735;49.144;8.668;2023-06-26T13:00:24;100100.72;;;30.96;30.99
15267;BME280;7735;49.144;8.668;2023-06-26T13:02:54;100093.22;;;30.90;31.35
15267;BME280;7735;49.144;8.668;2023-06-26T13:05:42;100101.72;;;30.95;30.93
15267;BME280;7735;49.144;8.668;2023-06-26T13:08:22;100101.56;;;30.96;30.61
15267;BME280;7735;49.144;8.668;2023-06-26T13:11:21;100097.47;;;31.02;30.07
15267;BME280;7735;49.144;8.668;2023-06-26T13:14:05;100098.31;;;31.02;30.28
15267;BME280;7735;49.144;8.668;2023-06-26T13:16:37;100095.03;;;30.99;30.68
15267;BME280;7735;49.144;8.668;2023-06-26T13:19:07;100088.13;;;30.96;30.20
15267;BME280;7735;49.144;8.668;2023-06-26T13:21:38;100091.53;;;30.89;30.64
15267;BME280;7735;49.144;8.668;2023-06-26T13:24:07;100083.47;;;30.89;30.49